Bookmark and Share
Track history (hours):
 

Pacific Pathfinder

Last reported at 2014-Apr-16 07:33 UTC. Time now 2014-Apr-16 07:47 UTC.
Position N 54°18' W 130°21'.

Length 15 m; draft 1.3 m.

Type: Pilot. MMSI: 316003484.

NotesDate/timePositionNaut miles runAvg speedWind from/ knotsBaromVisibWave heightAir tempDewpointWater temp
2014-Apr-16 07:33N 54°18' W 130°21'0 0.0
2014-Apr-16 06:33N 54°18' W 130°21'0 0.0
2014-Apr-16 05:33N 54°18' W 130°21'0 0.0
2014-Apr-16 04:33N 54°18' W 130°21'10 4.4
2014-Apr-16 02:22N 54°19' W 130°38'4 0.6
2014-Apr-15 20:08N 54°15' W 130°34'813.5
2014-Apr-15 19:34N 54°18' W 130°21'0 0.0
2014-Apr-15 18:34N 54°18' W 130°21'6 5.0
2014-Apr-15 17:19N 54°15' W 130°31'3 2.5
2014-Apr-15 16:07N 54°15' W 130°36'915.3
2014-Apr-15 15:33N 54°18' W 130°22'0 0.3
2014-Apr-15 14:33N 54°18' W 130°21'0 0.0
2014-Apr-15 12:34N 54°18' W 130°21'0 0.0
2014-Apr-15 11:34N 54°18' W 130°21'0 0.0
2014-Apr-15 10:34N 54°18' W 130°21'0 0.0
2014-Apr-15 09:34N 54°18' W 130°21'0 0.0
2014-Apr-15 08:34N 54°18' W 130°21'0 0.0
2014-Apr-15 07:34N 54°18' W 130°21'0 0.0
2014-Apr-15 06:34N 54°18' W 130°21'0 0.0
2014-Apr-15 05:34N 54°18' W 130°21'0 0.0
2014-Apr-15 03:34N 54°18' W 130°21'0 0.0
2014-Apr-15 02:34N 54°18' W 130°21'0 0.0
2014-Apr-15 01:34N 54°18' W 130°21'0 0.0
2014-Apr-15 00:34N 54°18' W 130°21'0 0.0
2014-Apr-14 23:34N 54°18' W 130°21'0 0.0
2014-Apr-14 22:34N 54°18' W 130°21'0 0.0
2014-Apr-14 21:34N 54°18' W 130°21'0 0.0
2014-Apr-14 20:33N 54°18' W 130°21'0 0.0
2014-Apr-14 19:34N 54°18' W 130°21'0 0.0
2014-Apr-14 18:33N 54°18' W 130°21'0 0.0
2014-Apr-14 17:34N 54°18' W 130°21'0 0.0
2014-Apr-14 16:34N 54°18' W 130°21'0 0.0
2014-Apr-14 15:34N 54°18' W 130°21'0 0.0
2014-Apr-14 14:34N 54°18' W 130°21'0 0.0
2014-Apr-14 13:33N 54°18' W 130°21'0 0.0
2014-Apr-14 07:33N 54°18' W 130°21'0 0.0
2014-Apr-14 06:33N 54°18' W 130°21'0 0.0
2014-Apr-14 05:33N 54°18' W 130°21'0 0.0
2014-Apr-13 22:33N 54°18' W 130°21'0 0.0
2014-Apr-13 21:33N 54°18' W 130°21'0 0.0
2014-Apr-13 20:33N 54°18' W 130°21'0 0.0
2014-Apr-13 19:33N 54°18' W 130°21'0 0.0
2014-Apr-13 18:33N 54°18' W 130°21'0 0.0
2014-Apr-13 17:33N 54°18' W 130°21'0 0.0
2014-Apr-13 16:33N 54°18' W 130°21'  
2014-Apr-09 04:33N 54°18' W 130°21'0 0.0
2014-Apr-09 03:33N 54°18' W 130°21'0 0.0
2014-Apr-09 02:33N 54°18' W 130°21'0 0.0
2014-Apr-09 01:33N 54°18' W 130°21'0 0.0
2014-Apr-08 23:33N 54°18' W 130°21'0 0.0
2014-Apr-08 22:33N 54°18' W 130°21'0 0.0
2014-Apr-08 21:33N 54°18' W 130°21'0 0.0
2014-Apr-08 20:33N 54°18' W 130°21'0 0.0
2014-Apr-08 19:33N 54°18' W 130°21'0 0.0
2014-Apr-08 18:33N 54°18' W 130°21'0 0.0
2014-Apr-08 17:33N 54°18' W 130°21'0 0.0
2014-Apr-08 16:33N 54°18' W 130°21'0 0.0
2014-Apr-08 15:33N 54°18' W 130°21'0 0.0
2014-Apr-08 14:33N 54°18' W 130°21'7 2.2
2014-Apr-08 11:12N 54°14' W 130°33'711.6
2014-Apr-08 10:33N 54°18' W 130°21'0 0.0
2014-Apr-08 09:33N 54°18' W 130°21'0 0.0
2014-Apr-08 08:33N 54°18' W 130°21'5 4.5
2014-Apr-08 07:30N 54°20' W 130°29'5 2.4
2014-Apr-08 05:34N 54°18' W 130°21'0 0.1
2014-Apr-08 04:33N 54°18' W 130°21'0 0.0
2014-Apr-08 03:33N 54°18' W 130°21'0 0.0
2014-Apr-08 02:33N 54°18' W 130°21'0 0.0
2014-Apr-08 01:33N 54°18' W 130°21'0 0.0
2014-Apr-08 00:33N 54°18' W 130°21'0 0.0
2014-Apr-07 23:33N 54°18' W 130°21'0 0.0
2014-Apr-07 22:33N 54°18' W 130°21'0 0.0
2014-Apr-07 21:33N 54°18' W 130°21'0 0.0
2014-Apr-07 20:33N 54°18' W 130°21'0 0.0
2014-Apr-07 19:33N 54°18' W 130°21'0 0.0
2014-Apr-07 17:33N 54°18' W 130°21'0 0.0
2014-Apr-07 16:33N 54°18' W 130°21'0 0.0
2014-Apr-07 15:33N 54°18' W 130°21'0 0.0
2014-Apr-07 14:33N 54°18' W 130°21'0 0.0
2014-Apr-07 13:33N 54°18' W 130°21'0 0.0
2014-Apr-07 12:33N 54°18' W 130°21'0 0.0
2014-Apr-07 11:33N 54°18' W 130°21'0 0.0
2014-Apr-07 10:33N 54°18' W 130°21'11 5.1
2014-Apr-07 08:29N 54°16' W 130°39'1011.2
2014-Apr-07 07:33N 54°18' W 130°21'0 0.1
2014-Apr-07 06:33N 54°18' W 130°21'0 0.0
2014-Apr-07 05:33N 54°18' W 130°21'0 0.0
2014-Apr-07 04:34N 54°18' W 130°21'0 0.0
2014-Apr-07 03:34N 54°18' W 130°21'0 0.0
2014-Apr-07 02:33N 54°18' W 130°21'0 0.0
2014-Apr-07 01:33N 54°18' W 130°21'0 0.0
2014-Apr-07 00:33N 54°18' W 130°21'0 0.0
2014-Apr-06 23:33N 54°18' W 130°21'0 0.0
2014-Apr-06 22:33N 54°18' W 130°21'0 0.0
2014-Apr-06 21:33N 54°18' W 130°21'0 0.0
2014-Apr-06 20:33N 54°18' W 130°21'0 0.0
2014-Apr-06 19:33N 54°18' W 130°21'0 0.0
2014-Apr-06 18:33N 54°18' W 130°21'0 0.0
2014-Apr-06 17:33N 54°18' W 130°21'0 0.0
2014-Apr-06 16:33N 54°18' W 130°21'0 0.0
2014-Apr-06 15:33N 54°18' W 130°21'0 0.0
2014-Apr-06 14:33N 54°18' W 130°21'0 0.0
2014-Apr-06 13:33N 54°18' W 130°21'0 0.0
2014-Apr-06 12:33N 54°18' W 130°21'0 0.0
2014-Apr-06 11:33N 54°18' W 130°21'0 0.0
2014-Apr-06 10:33N 54°18' W 130°21'0 0.0
2014-Apr-06 09:33N 54°18' W 130°21'0 0.0
2014-Apr-06 08:33N 54°18' W 130°21'0 0.0
2014-Apr-06 07:33N 54°18' W 130°21'  

Dump ship's entire track history

sailing weather and tide predictions

Pacific Pathfinder — PATH — position and weather